createdAt,value
2017-08-28T12:45:25.817Z,-302.01
2017-08-28T12:46:39.772Z,-302.08
2017-08-28T12:47:51.992Z,-301.97
2017-08-28T12:49:05.908Z,-302.09
2017-08-28T12:50:19.842Z,-302.18
2017-08-28T12:51:33.186Z,-302.32
2017-08-28T12:52:46.548Z,-302.49
2017-08-28T12:53:59.933Z,-302.62
2017-08-28T12:55:12.715Z,-302.72
2017-08-28T12:56:26.559Z,-302.66
2017-08-28T12:57:39.765Z,-302.46
2017-08-28T12:58:53.613Z,-302.32
2017-08-28T13:00:06.313Z,-302.4
2017-08-28T13:01:19.529Z,-302.24
2017-08-28T13:02:31.754Z,-302.3
2017-08-28T13:03:45.082Z,-302.48
2017-08-28T13:05:01.837Z,-302.53
2017-08-28T13:06:14.037Z,-302.45
2017-08-28T13:07:26.762Z,-301.97
2017-08-28T13:08:39.440Z,-302.05
2017-08-28T13:09:52.723Z,-302.32
2017-08-28T13:11:06.562Z,-302.49
2017-08-28T13:12:19.269Z,-302.47
2017-08-28T13:13:33.092Z,-302.63
2017-08-28T13:14:45.782Z,-302.43
2017-08-28T13:15:58.974Z,-302.27
2017-08-28T13:17:11.595Z,-302.26
2017-08-28T13:18:24.868Z,-302.15
2017-08-28T13:19:37.577Z,-302.24
2017-08-28T13:20:50.765Z,-302.37
2017-08-28T13:22:03.445Z,-302.31
2017-08-28T13:23:16.636Z,-302.35
2017-08-28T13:24:29.331Z,-302.51
2017-08-28T13:25:42.052Z,-302.36
2017-08-28T13:26:55.259Z,-302.31
2017-08-28T13:28:08.552Z,-302.5
2017-08-28T13:29:21.766Z,-302.58
2017-08-28T13:30:34.971Z,-302.5
2017-08-28T13:32:18.228Z,-302.46
2017-08-28T13:33:32.045Z,-302.43
2017-08-28T13:34:44.726Z,-302.41
2017-08-28T13:35:58.520Z,-302.47
2017-08-28T13:37:11.183Z,-302.4
2017-08-28T13:38:24.402Z,-302.51
2017-08-28T13:39:37.760Z,-302.75
2017-08-28T13:40:49.936Z,-302.88
2017-08-28T13:42:02.664Z,-302.87
2017-08-28T13:43:15.920Z,-302.88
2017-08-28T13:44:28.621Z,-302.71
2017-08-28T13:45:41.302Z,-302.72
2017-08-28T13:46:54.008Z,-302.83
2017-08-28T13:48:06.734Z,-302.91
2017-08-28T13:49:19.817Z,-302.97
2017-08-28T13:50:33.556Z,-303.19
2017-08-28T13:51:45.731Z,-303.35
2017-08-28T13:52:58.963Z,-303.11
2017-08-28T13:54:11.624Z,-303.06
2017-08-28T13:55:24.828Z,-303.1
2017-08-28T13:56:38.028Z,-303.23
2017-08-28T13:57:50.744Z,-303.33
2017-08-28T13:59:03.947Z,-303.44
2017-08-28T14:00:16.131Z,-303.4
2017-08-28T14:01:28.827Z,-303.41
2017-08-28T14:02:42.614Z,-303.47
2017-08-28T14:03:55.794Z,-303.27
2017-08-28T14:05:08.496Z,-303.09
2017-08-28T14:06:21.698Z,-303.21
2017-08-28T14:07:34.911Z,-303.35
2017-08-28T14:08:47.555Z,-303.16
2017-08-28T14:10:00.285Z,-302.98
2017-08-28T14:11:12.989Z,-303.1
2017-08-28T14:12:26.160Z,-303.24
2017-08-28T14:13:39.385Z,-303.32
2017-08-28T14:14:52.086Z,-303.3
2017-08-28T14:16:03.782Z,-303.24
2017-08-28T14:17:16.479Z,-303.13
2017-08-28T14:18:28.657Z,-302.99
2017-08-28T14:19:41.870Z,-302.92
2017-08-28T14:20:54.616Z,-302.89
2017-08-28T14:22:07.823Z,-302.92
2017-08-28T14:23:20.018Z,-302.84
2017-08-28T14:24:32.720Z,-302.92
2017-08-28T14:26:17.088Z,-302.94
2017-08-28T14:27:30.275Z,-303.07
2017-08-28T14:28:42.994Z,-303.17
2017-08-28T14:29:55.664Z,-303.27
2017-08-28T14:31:07.817Z,-303.47
2017-08-28T14:32:20.496Z,-303.57
2017-08-28T14:33:33.713Z,-303.64
2017-08-28T14:34:45.899Z,-303.45
2017-08-28T14:35:58.071Z,-303.32
2017-08-28T14:37:10.753Z,-303.33
2017-08-28T14:38:23.425Z,-303.36
2017-08-28T14:39:35.608Z,-303.35
2017-08-28T14:40:48.915Z,-303.36
2017-08-28T14:42:01.606Z,-303.4
2017-08-28T14:43:13.771Z,-303.44
2017-08-28T14:44:26.962Z,-303.65
2017-08-28T14:45:38.609Z,-303.86
2017-08-28T14:46:51.850Z,-303.96
2017-08-28T14:48:04.548Z,-303.95
2017-08-28T14:49:16.706Z,-303.86
2017-08-28T14:50:29.904Z,-303.79
2017-08-28T14:51:42.617Z,-303.72
2017-08-28T14:52:55.329Z,-303.83
2017-08-28T14:54:07.522Z,-303.83
2017-08-28T14:55:20.719Z,-303.89
2017-08-28T14:56:33.426Z,-304.05
2017-08-28T14:57:46.621Z,-303.99
2017-08-28T14:58:58.815Z,-303.94
2017-08-28T15:00:12.024Z,-304.04
2017-08-28T15:01:25.259Z,-304.12
2017-08-28T15:02:38.483Z,-304.22
2017-08-28T15:03:50.660Z,-304.23
2017-08-28T15:05:02.894Z,-304.23
2017-08-28T15:06:15.108Z,-304.13
2017-08-28T15:07:27.778Z,-304.06
2017-08-28T15:08:39.967Z,-303.94
2017-08-28T15:09:53.780Z,-304.04
2017-08-28T15:11:05.940Z,-304.16
2017-08-28T15:12:19.183Z,-304.25
2017-08-28T15:13:32.390Z,-304.37
2017-08-28T15:14:44.546Z,-304.33
2017-08-28T15:15:58.380Z,-304.21
2017-08-28T15:17:11.075Z,-304.24
2017-08-28T15:18:23.837Z,-304.37
2017-08-28T15:19:37.045Z,-304.46
2017-08-28T15:20:50.262Z,-304.48
2017-08-28T15:22:03.517Z,-304.63
2017-08-28T15:23:15.688Z,-304.74
2017-08-28T15:24:28.896Z,-304.7
2017-08-28T15:25:42.101Z,-304.71
2017-08-28T15:26:55.324Z,-304.65
2017-08-28T15:28:08.571Z,-304.56
2017-08-28T15:29:21.305Z,-304.61
2017-08-28T15:30:34.608Z,-304.69
2017-08-28T15:31:48.413Z,-304.87
2017-08-28T15:33:01.618Z,-304.85
2017-08-28T15:34:14.841Z,-304.88
2017-08-28T15:35:27.005Z,-304.91
2017-08-28T15:36:39.699Z,-304.94
2017-08-28T15:37:51.865Z,-305
2017-08-28T15:39:03.987Z,-304.91
2017-08-28T15:40:16.678Z,-304.84
2017-08-28T15:41:29.899Z,-304.81
2017-08-28T15:42:42.537Z,-304.9
2017-08-28T15:43:55.761Z,-304.88
2017-08-28T15:45:08.459Z,-305.02
2017-08-28T15:46:21.141Z,-305.18
2017-08-28T15:47:33.852Z,-305.24
2017-08-28T15:48:47.642Z,-305.24
2017-08-28T15:49:59.782Z,-305.33
2017-08-28T15:51:12.513Z,-305.57
2017-08-28T15:52:25.717Z,-305.66
2017-08-28T15:53:38.964Z,-305.42
2017-08-28T15:54:51.683Z,-305.52
2017-08-28T15:56:04.400Z,-305.5
2017-08-28T15:57:16.570Z,-305.51
2017-08-28T15:58:29.822Z,-305.76
2017-08-28T15:59:43.185Z,-305.93
2017-08-28T16:00:55.758Z,-305.85
2017-08-28T16:02:08.940Z,-305.88
2017-08-28T16:03:21.132Z,-305.74
2017-08-28T16:04:33.919Z,-305.77
2017-08-28T16:05:46.075Z,-305.94
2017-08-28T16:06:59.378Z,-306.21
2017-08-28T16:08:12.088Z,-306.45
2017-08-28T16:09:25.861Z,-306.72
2017-08-28T16:10:38.548Z,-306.5
2017-08-28T16:11:50.711Z,-305.65
2017-08-28T16:13:02.361Z,-305.36
2017-08-28T16:14:15.593Z,-305.19
2017-08-28T16:15:28.827Z,-305.12
2017-08-28T16:16:41.022Z,-305.27
2017-08-28T16:17:53.754Z,-305.5
2017-08-28T16:19:06.459Z,-305.39
2017-08-28T16:20:19.138Z,-305.63
2017-08-28T16:21:32.354Z,-305.83
2017-08-28T16:22:45.049Z,-305.91
2017-08-28T16:23:57.751Z,-306.16
2017-08-28T16:25:10.449Z,-306.13
2017-08-28T16:26:23.160Z,-305.96
2017-08-28T16:27:35.828Z,-305.96
2017-08-28T16:28:48.010Z,-305.92
2017-08-28T16:29:59.126Z,-305.73
2017-08-28T16:31:11.308Z,-305.81
2017-08-28T16:32:24.510Z,-305.51
2017-08-28T16:33:36.764Z,-305.52
2017-08-28T16:34:48.983Z,-305.48
2017-08-28T16:36:01.159Z,-305.13
2017-08-28T16:37:13.839Z,-305.17
2017-08-28T16:38:25.991Z,-305.09
2017-08-28T16:39:38.678Z,-305.25
2017-08-28T16:40:50.867Z,-305.4
2017-08-28T16:42:03.588Z,-305.7
2017-08-28T16:43:16.246Z,-305.91
2017-08-28T16:44:28.925Z,-306.08
2017-08-28T16:45:42.155Z,-306.22
2017-08-28T16:46:55.347Z,-306.52
2017-08-28T16:48:08.068Z,-306.52
2017-08-28T16:49:19.709Z,-306.48
2017-08-28T16:50:32.960Z,-306.35
2017-08-28T16:51:46.183Z,-306.45
2017-08-28T16:52:58.894Z,-306.62
2017-08-28T16:54:11.594Z,-306.99
2017-08-28T16:55:24.257Z,-306.87
2017-08-28T16:56:36.452Z,-306.25
2017-08-28T16:57:48.648Z,-306.05
2017-08-28T16:59:01.849Z,-306.23
2017-08-28T17:00:14.522Z,-306.7
2017-08-28T17:01:27.799Z,-306.99
2017-08-28T17:02:40.479Z,-307.15
2017-08-28T17:03:53.195Z,-306.87
2017-08-28T17:05:06.396Z,-306.82
2017-08-28T17:06:19.589Z,-307.01
2017-08-28T17:09:15.621Z,-306.6
2017-08-28T17:10:28.802Z,-306.46
2017-08-28T17:11:41.868Z,-306.93
2017-08-28T17:12:55.673Z,-307.12
2017-08-28T17:14:08.848Z,-306.99
2017-08-28T17:15:21.568Z,-306.8
2017-08-28T17:16:34.778Z,-306.66
2017-08-28T17:17:47.953Z,-306.81
2017-08-28T17:19:00.639Z,-306.8
2017-08-28T17:20:13.895Z,-306.27
2017-08-28T17:21:26.589Z,-306.29
2017-08-28T17:22:39.297Z,-305.92
2017-08-28T17:23:52.512Z,-305.69
2017-08-28T17:25:05.796Z,-305.82
2017-08-28T17:26:19.587Z,-305.82
2017-08-28T17:27:33.391Z,-306.29
2017-08-28T17:28:46.621Z,-306.6
2017-08-28T17:29:59.874Z,-306.85
2017-08-28T17:31:13.100Z,-307.12
2017-08-28T17:32:25.731Z,-307.08
2017-08-28T17:33:38.333Z,-307.12
2017-08-28T17:34:51.671Z,-307.06
2017-08-28T17:36:03.335Z,-306.92
2017-08-28T17:37:16.589Z,-306.72
2017-08-28T17:38:29.267Z,-306.53
2017-08-28T17:39:41.851Z,-306.52
2017-08-28T17:40:55.076Z,-306.61
2017-08-28T17:42:07.774Z,-306.54
2017-08-28T17:43:20.390Z,-306.2
2017-08-28T17:44:32.566Z,-306.31
2017-08-28T17:45:45.756Z,-306.5
2017-08-28T17:46:58.438Z,-307
2017-08-28T17:48:10.626Z,-307.39
2017-08-28T17:49:23.927Z,-307.42
2017-08-28T17:50:36.653Z,-306.96
2017-08-28T17:51:48.832Z,-307.15
2017-08-28T17:53:02.657Z,-307.61
2017-08-28T17:54:14.826Z,-307.62
2017-08-28T17:55:28.055Z,-307.79
2017-08-28T17:56:40.752Z,-307.99
2017-08-28T17:57:53.465Z,-308.23
2017-08-28T17:59:06.649Z,-308.23
2017-08-28T18:00:19.322Z,-308.06
2017-08-28T18:01:32.503Z,-307.9
2017-08-28T18:02:44.664Z,-307.9
2017-08-28T18:03:57.365Z,-307.89
2017-08-28T18:05:09.526Z,-308.2
2017-08-28T18:06:22.252Z,-308.2
2017-08-28T18:07:36.070Z,-307.78
2017-08-28T18:08:48.245Z,-307.38
2017-08-28T18:10:00.373Z,-307.53
2017-08-28T18:11:12.571Z,-306.99
2017-08-28T18:12:25.271Z,-307.2
2017-08-28T18:13:37.954Z,-307.28
2017-08-28T18:14:51.244Z,-307.62
2017-08-28T18:16:03.429Z,-307.83
2017-08-28T18:17:16.625Z,-307.94
2017-08-28T18:18:29.317Z,-307.84
2017-08-28T18:19:41.960Z,-307.59
2017-08-28T18:20:54.176Z,-307.22
2017-08-28T18:22:06.893Z,-306.92
2017-08-28T18:23:20.121Z,-306.72
2017-08-28T18:24:33.319Z,-306.84
2017-08-28T18:25:45.497Z,-306.98
2017-08-28T18:26:59.337Z,-307.25
2017-08-28T18:28:12.557Z,-307.03
2017-08-28T18:29:25.787Z,-306.97
2017-08-28T18:30:39.024Z,-306.96
2017-08-28T18:31:51.828Z,-306.8
2017-08-28T18:33:05.045Z,-307.05
2017-08-28T18:34:17.741Z,-307.51
2017-08-28T18:35:30.543Z,-307.61
2017-08-28T18:36:43.745Z,-307.34
2017-08-28T18:37:56.461Z,-307.21
2017-08-28T18:39:09.680Z,-307.39
2017-08-28T18:40:21.847Z,-307.61
2017-08-28T18:41:34.562Z,-307.66
2017-08-28T18:42:47.237Z,-307.35
2017-08-28T18:43:59.907Z,-307.44
2017-08-28T18:45:12.102Z,-307.8
2017-08-28T18:46:24.789Z,-307.76
2017-08-28T18:47:37.465Z,-307.66
2017-08-28T18:48:50.639Z,-307.37
2017-08-28T18:50:03.831Z,-307.45
2017-08-28T18:51:17.122Z,-307.21
2017-08-28T18:52:30.381Z,-306.6
2017-08-28T18:53:43.484Z,-306.89
2017-08-28T18:54:56.120Z,-307.1
2017-08-28T18:56:08.839Z,-307.05
2017-08-28T18:57:22.027Z,-306.55
2017-08-28T18:58:34.700Z,-306.27
2017-08-28T18:59:47.922Z,-306.28
2017-08-28T19:01:01.165Z,-306.62
2017-08-28T19:02:14.394Z,-307.03
2017-08-28T19:03:26.576Z,-307.32
2017-08-28T19:04:39.238Z,-306.97
2017-08-28T19:05:51.920Z,-306.36
2017-08-28T19:07:04.083Z,-306.07
2017-08-28T19:08:16.765Z,-306.42
2017-08-28T19:09:30.040Z,-306.52
2017-08-28T19:10:42.235Z,-306.79
2017-08-28T19:11:54.890Z,-306.79
2017-08-28T19:13:07.057Z,-306.42
2017-08-28T19:14:20.355Z,-306.44
2017-08-28T19:15:34.204Z,-306.35
2017-08-28T19:16:46.886Z,-306.51
2017-08-28T19:17:59.597Z,-306.57
2017-08-28T19:19:12.779Z,-306.76
2017-08-28T19:20:25.454Z,-306.78
2017-08-28T19:21:37.099Z,-306.58
2017-08-28T19:22:49.850Z,-306.58
2017-08-28T19:24:02.554Z,-306.85
2017-08-28T19:25:15.756Z,-307.15
2017-08-28T19:26:27.949Z,-307.26
2017-08-28T19:27:41.146Z,-306.94
2017-08-28T19:28:53.319Z,-306.73
2017-08-28T19:30:06.037Z,-306.65
2017-08-28T19:31:18.243Z,-306.56
2017-08-28T19:32:30.938Z,-306.31
2017-08-28T19:33:43.681Z,-305.95
2017-08-28T19:34:56.381Z,-305.63
2017-08-28T19:36:09.651Z,-305.75
2017-08-28T19:37:22.875Z,-305.75
2017-08-28T19:38:35.616Z,-305.76
2017-08-28T19:39:48.858Z,-306.1
2017-08-28T19:41:02.069Z,-306.45
2017-08-28T19:42:14.778Z,-306.5
2017-08-28T19:43:26.932Z,-306.11
2017-08-28T19:44:40.156Z,-305.97
2017-08-28T19:45:54.538Z,-305.73
2017-08-28T19:47:07.219Z,-305.73
2017-08-28T19:48:20.414Z,-305.7
2017-08-28T19:49:33.789Z,-305.57
2017-08-28T19:50:45.946Z,-305.49
2017-08-28T19:51:59.274Z,-305.31
2017-08-28T19:53:11.448Z,-305.63
2017-08-28T19:54:24.147Z,-305.75
2017-08-28T19:55:37.461Z,-305.39
2017-08-28T19:56:50.666Z,-305.18
2017-08-28T19:58:02.854Z,-304.88
2017-08-28T19:59:16.662Z,-304.65
2017-08-28T20:00:29.880Z,-304.47
2017-08-28T20:01:43.092Z,-304.17
2017-08-28T20:02:56.310Z,-303.95
2017-08-28T20:04:09.586Z,-303.87
2017-08-28T20:05:21.758Z,-303.74
2017-08-28T20:06:37.982Z,-303.96
2017-08-28T20:07:50.685Z,-303.84
2017-08-28T20:09:03.927Z,-303.6
2017-08-28T20:10:16.645Z,-303.76
2017-08-28T20:11:28.845Z,-303.89
2017-08-28T20:12:41.052Z,-303.75
2017-08-28T20:13:54.285Z,-303.75
2017-08-28T20:15:06.966Z,-303.8
2017-08-28T20:16:20.146Z,-303.74
2017-08-28T20:17:32.312Z,-303.41
2017-08-28T20:18:45.014Z,-303.17
2017-08-28T20:19:58.209Z,-302.96
2017-08-28T20:21:11.408Z,-302.9
2017-08-28T20:22:24.649Z,-302.88
2017-08-28T20:23:37.861Z,-302.88
2017-08-28T20:24:51.071Z,-302.78
2017-08-28T20:26:04.242Z,-302.78
2017-08-28T20:27:16.947Z,-302.9
2017-08-28T20:28:29.637Z,-302.95
2017-08-28T20:29:42.344Z,-303.02
2017-08-28T20:30:56.741Z,-302.84
2017-08-28T20:32:10.434Z,-302.69
2017-08-28T20:33:22.686Z,-302.58
2017-08-28T20:34:35.393Z,-302.48
2017-08-28T20:35:49.190Z,-302.35
2017-08-28T20:37:02.347Z,-302.2
2017-08-28T20:38:14.529Z,-302.12
2017-08-28T20:39:27.739Z,-302.05
2017-08-28T20:40:40.470Z,-302.01
2017-08-28T20:41:53.710Z,-301.97
2017-08-28T20:43:06.948Z,-301.87
2017-08-28T20:44:20.140Z,-301.76
2017-08-28T20:45:32.301Z,-301.63
2017-08-28T20:46:45.504Z,-301.54
2017-08-28T20:47:58.738Z,-301.44
2017-08-28T20:49:10.912Z,-301.31
2017-08-28T20:50:24.202Z,-301.19
2017-08-28T20:51:36.379Z,-301.13
2017-08-28T20:52:49.098Z,-301.11
2017-08-28T20:54:01.770Z,-301.05
2017-08-28T20:55:13.945Z,-301
2017-08-28T20:56:26.638Z,-300.96
2017-08-28T20:57:39.375Z,-300.92
2017-08-28T20:58:52.580Z,-300.83
2017-08-28T21:00:05.783Z,-300.76
2017-08-28T21:01:17.980Z,-300.68
2017-08-28T21:02:31.211Z,-300.65
2017-08-28T21:03:43.377Z,-300.6
2017-08-28T21:04:56.082Z,-300.57
2017-08-28T21:06:08.777Z,-300.52
2017-08-28T21:07:21.029Z,-300.48
2017-08-28T21:08:33.207Z,-300.42
2017-08-28T21:09:46.452Z,-300.4
2017-08-28T21:10:59.700Z,-300.36
2017-08-28T21:12:11.871Z,-300.32
2017-08-28T21:13:23.028Z,-300.24
2017-08-28T21:14:36.273Z,-300.19
2017-08-28T21:15:48.988Z,-300.14
2017-08-28T21:17:02.237Z,-300.1
2017-08-28T21:18:14.922Z,-300.07
2017-08-28T21:19:27.122Z,-300.05
2017-08-28T21:20:39.288Z,-300.01
2017-08-28T21:21:51.485Z,-299.96
2017-08-28T21:23:03.683Z,-299.92
2017-08-28T21:24:16.923Z,-299.91
2017-08-28T21:25:28.592Z,-299.9
2017-08-28T21:26:41.807Z,-299.91
2017-08-28T21:27:54.492Z,-299.88
2017-08-28T21:29:07.305Z,-299.86
2017-08-28T21:30:20.029Z,-299.84
2017-08-28T21:31:32.693Z,-299.82
2017-08-28T21:32:44.861Z,-299.81
2017-08-28T21:33:57.597Z,-299.79
2017-08-28T21:35:10.288Z,-299.78
2017-08-28T21:36:23.530Z,-299.76
2017-08-28T21:37:36.788Z,-299.77
2017-08-28T21:38:49.988Z,-299.74
2017-08-28T21:40:03.188Z,-299.71
2017-08-28T21:41:16.408Z,-299.69
2017-08-28T21:42:29.118Z,-299.65
2017-08-28T21:43:41.823Z,-299.65
2017-08-28T21:44:54.560Z,-299.63
2017-08-28T21:46:07.756Z,-299.59
2017-08-28T21:47:19.962Z,-299.58
2017-08-28T21:48:32.670Z,-299.58
2017-08-28T21:49:45.863Z,-299.56
2017-08-28T21:50:58.169Z,-299.54
2017-08-28T21:52:10.870Z,-299.52
2017-08-28T21:53:23.596Z,-299.52
2017-08-28T21:54:36.820Z,-299.52
2017-08-28T21:55:50.051Z,-299.49
2017-08-28T21:57:02.766Z,-299.46
2017-08-28T21:58:15.999Z,-299.46
2017-08-28T21:59:29.215Z,-299.47
2017-08-28T22:00:41.916Z,-299.45
2017-08-28T22:01:55.156Z,-299.43
2017-08-28T22:03:08.414Z,-299.4
2017-08-28T22:04:21.121Z,-299.37
2017-08-28T22:05:34.363Z,-299.34
2017-08-28T22:06:47.666Z,-299.34
2017-08-28T22:08:00.382Z,-299.31
2017-08-28T22:09:13.086Z,-299.28
2017-08-28T22:10:25.773Z,-299.25
2017-08-28T22:11:39.583Z,-299.24
2017-08-28T22:12:52.788Z,-299.21
2017-08-28T22:14:06.025Z,-299.19
2017-08-28T22:15:19.258Z,-299.17
2017-08-28T22:16:31.980Z,-299.17
2017-08-28T22:17:44.695Z,-299.17
2017-08-28T22:18:57.445Z,-299.18
2017-08-28T22:20:11.260Z,-299.17
2017-08-28T22:21:24.057Z,-299.18
2017-08-28T22:22:36.635Z,-299.18
2017-08-28T22:23:48.776Z,-299.16
2017-08-28T22:25:02.066Z,-299.14
2017-08-28T22:26:14.775Z,-299.11
2017-08-28T22:27:26.968Z,-299.1
2017-08-28T22:28:40.797Z,-299.1
2017-08-28T22:29:52.998Z,-299.11
2017-08-28T22:31:06.208Z,-299.1
2017-08-28T22:32:18.809Z,-299.09
2017-08-28T22:33:31.941Z,-299.08
2017-08-28T22:34:44.658Z,-299.06
2017-08-28T22:35:57.990Z,-299.04
2017-08-28T22:37:10.156Z,-299.03
2017-08-28T22:38:22.825Z,-299
2017-08-28T22:39:35.046Z,-298.99
2017-08-28T22:40:48.828Z,-298.96
2017-08-28T22:42:02.043Z,-298.92
2017-08-28T22:43:14.796Z,-298.9
2017-08-28T22:44:27.530Z,-298.9
2017-08-28T22:45:40.166Z,-298.88
2017-08-28T22:46:52.360Z,-298.86
2017-08-28T22:48:05.633Z,-298.84
2017-08-28T22:49:19.434Z,-298.8
2017-08-28T22:50:30.983Z,-298.79
2017-08-28T22:51:43.681Z,-298.81
2017-08-28T22:52:55.863Z,-298.79
2017-08-28T22:54:08.534Z,-298.77
2017-08-28T22:55:21.142Z,-298.75
2017-08-28T22:56:34.375Z,-298.75
2017-08-28T22:57:47.553Z,-298.75
2017-08-28T22:59:01.370Z,-298.74
2017-08-28T23:00:14.570Z,-298.77
2017-08-28T23:01:27.236Z,-298.77
2017-08-28T23:02:39.922Z,-298.76
2017-08-28T23:03:52.606Z,-298.75
2017-08-28T23:05:05.312Z,-298.75
2017-08-28T23:06:17.971Z,-298.76
2017-08-28T23:07:31.144Z,-298.76
2017-08-28T23:08:43.819Z,-298.75
2017-08-28T23:09:57.027Z,-298.75
2017-08-28T23:11:09.365Z,-298.72
2017-08-28T23:12:22.063Z,-298.76
2017-08-28T23:13:35.286Z,-298.75
2017-08-28T23:14:47.468Z,-298.73
2017-08-28T23:16:00.131Z,-298.7
2017-08-28T23:17:11.787Z,-298.68
2017-08-28T23:18:24.465Z,-298.67
2017-08-28T23:19:36.610Z,-298.68
2017-08-28T23:20:48.978Z,-298.69
2017-08-28T23:22:01.632Z,-298.68
2017-08-28T23:23:14.288Z,-298.67
2017-08-28T23:24:27.459Z,-298.64
2017-08-28T23:25:40.678Z,-298.65
2017-08-28T23:26:53.920Z,-298.63
2017-08-28T23:28:07.116Z,-298.63
2017-08-28T23:29:20.355Z,-298.66
2017-08-28T23:30:33.017Z,-298.66
2017-08-28T23:31:45.701Z,-298.66
2017-08-28T23:32:58.384Z,-298.65
2017-08-28T23:34:11.587Z,-298.68
2017-08-28T23:35:24.239Z,-298.65
2017-08-28T23:36:37.440Z,-298.63
2017-08-28T23:37:50.091Z,-298.61
2017-08-28T23:39:03.298Z,-298.61
2017-08-28T23:40:16.496Z,-298.61
2017-08-28T23:41:29.177Z,-298.62
2017-08-28T23:42:42.379Z,-298.62
2017-08-28T23:43:56.200Z,-298.62
2017-08-28T23:45:09.408Z,-298.6
2017-08-28T23:46:21.038Z,-298.58
2017-08-28T23:47:33.687Z,-298.58
2017-08-28T23:48:45.872Z,-298.57
2017-08-28T23:49:58.556Z,-298.52
2017-08-28T23:51:11.783Z,-298.52
2017-08-28T23:52:24.461Z,-298.53
2017-08-28T23:53:37.670Z,-298.52
2017-08-28T23:54:50.870Z,-298.52
2017-08-28T23:56:04.053Z,-298.51
2017-08-28T23:57:17.262Z,-298.49
2017-08-28T23:58:30.444Z,-298.49
2017-08-28T23:59:42.657Z,-298.49
